Houlton, ME

5:40 PM EST on March 03, 2015 (GMT -0500)
Houlton International | Change Station
CLOSE
Current Station
Airport
Location: Houlton,
Elevation: 492 ft
Nearby Weather Stations
Active Advisory: Winter Weather Advisory

Elev 492 ft 46.12 °N, 67.79 °W | Updated 47 minutes ago

Clear
Clear
23 °F
Feels Like 17 °F
N
5
Wind Variable Wind from SSW

Today
High -- | Low -- °F
--% Chance of Precip.
Yesterday
High -- | Low -- °F
Precip. -- in
6:07 AM 5:20 PM
Waxing Gibbous, 97% visible
Pressure 30.11 in
Visibility 10.0 miles
Clouds Clear
Windchill 17 °F
Dew Point -9 °F
Humidity 24%
Rainfall 0.00 in
Snow Depth Not available.
UV 0 out of 12
Pollen .30 out of 12
Air Quality Not available.
Flu Activity Not available.
METAR KHUL 032153Z AUTO 20004KT 10SM CLR M05/M23 A3007 RMK AO2 SLP195 T10501228

More Conditions Fewer Conditions

Pressure 30.11 in
Visibility 10.0 miles
Clouds Clear
Windchill 17 °F
Dew Point -9 °F
Humidity 24%
Rainfall 0.00 in
Snow Depth Not available.
UV 0 out of 12
Pollen .30 out of 12
Air Quality Not available.
Flu Activity Not available.
METAR KHUL 032153Z AUTO 20004KT 10SM CLR M05/M23 A3007 RMK AO2 SLP195 T10501228

More Conditions Fewer Conditions

10-Day Weather Forecast

Almanac

Astronomy

Mar. 03, 2015 Rise Set
Actual Time
Civil Twilight
Nautical Twilight
Astronomical Twilight
Moon
Length of Visible Light
Length of Day
Tomorrow will be .
, % of the Moon is Illuminated

Today's Extremes

State Highs State Lows

Community

WunderPhotos

Upload Photos

1,802,299 photos uploaded!

WunderBlogs® & News

Nearby

Air Quality

  Air Quality AQ Index Pollutant
Not available.

Snow Depth

Station Depth Elevation

Earthquake Activity

City Distance Mag. Time & Date
Minimum magnitude displayed is 2.5.

Coastal Water Temperatures

Place Temperature

Nearby Weather Stations

Winter Weather Advisory
Statement as of 3:50 PM EST on March 03, 2015

... Winter Weather Advisory remains in effect from 9 PM this
evening to 10 am EST Wednesday...

* locations... Penobscot... Hancock and Washington counties.

* Hazard types... snow

* snow accumulations... 3 to 5 inches.

* Timing... overnight into early Wednesday morning.

* Impacts... snow will lead to snow covered roads which could
lead to some travel difficulties.

* Winds... south 10 to 15 mph with gusts up to 25 mph.

* Temperatures... rising into the upper 20s by early Wednesday
morning.

* Visibilities... one half of a mile at times.

Precautionary/preparedness actions...

A Winter Weather Advisory for snow means that periods of snow
will cause primarily travel difficulties. Be prepared for snow
covered roads and limited visibilities... and use caution while
driving.